Time;durP1;ratioP1;P1;durP2;ratioP2;P2;SDS_P1;SDS_P2;PMS_P1;PMS_P2;Temp;Humidity;BMP_temperature;BMP_pressure;BME280_temperature;BME280_humidity;BME280_pressure;Samples;Min_cycle;Max_cycle;Signal;HPM_P1;HPM_P2
2021/03/04 00:00:33;;;;;;;99.00;52.85;;;6.60;83.20;;;;;;5031821;28;20372;-86
2021/03/04 00:02:59;;;;;;;101.57;52.30;;;6.40;84.30;;;;;;5032252;28;20375;-86
2021/03/04 00:05:24;;;;;;;98.83;50.70;;;6.40;84.10;;;;;;5030488;28;20452;-84
2021/03/04 00:07:50;;;;;;;101.27;51.70;;;6.50;83.40;;;;;;5031546;28;20462;-86
2021/03/04 00:10:18;;;;;;;106.23;53.27;;;6.40;83.70;;;;;;5031577;28;20837;-86
2021/03/04 00:12:44;;;;;;;103.28;53.65;;;6.40;84.00;;;;;;5031977;28;20391;-86
2021/03/04 00:15:12;;;;;;;102.70;52.50;;;6.40;83.30;;;;;;5031650;28;20386;-85
2021/03/04 00:17:38;;;;;;;106.93;55.90;;;6.50;83.60;;;;;;5031335;28;20387;-85
2021/03/04 00:20:09;;;;;;;106.05;52.78;;;6.30;84.20;;;;;;5031567;28;20384;-85
2021/03/04 00:22:35;;;;;;;103.47;53.45;;;6.20;84.70;;;;;;5031475;28;20418;-85
2021/03/04 00:25:02;;;;;;;101.97;51.87;;;6.30;84.40;;;;;;5031770;28;20851;-85
2021/03/04 00:27:28;;;;;;;106.97;53.80;;;6.40;83.40;;;;;;5029496;28;20395;-85
2021/03/04 00:29:54;;;;;;;105.03;52.85;;;6.30;84.50;;;;;;5031715;28;20464;-85
2021/03/04 00:32:19;;;;;;;96.43;51.40;;;6.20;84.80;;;;;;5030011;28;20399;-86
2021/03/04 00:34:45;;;;;;;98.57;50.57;;;6.20;84.10;;;;;;5031538;28;20415;-86
2021/03/04 00:37:10;;;;;;;101.27;50.53;;;6.30;84.00;;;;;;5030870;28;20856;-86
2021/03/04 00:39:36;;;;;;;96.40;50.20;;;6.30;83.90;;;;;;5031462;28;20833;-85
2021/03/04 00:42:02;;;;;;;108.17;55.97;;;6.30;83.80;;;;;;5030969;28;20379;-85
2021/03/04 00:44:27;;;;;;;101.23;52.73;;;6.10;85.10;;;;;;5030819;28;20374;-85
2021/03/04 00:46:53;;;;;;;100.80;50.13;;;6.10;85.30;;;;;;5030004;28;20467;-85
2021/03/04 00:49:18;;;;;;;95.28;51.97;;;6.20;84.30;;;;;;5030897;28;20379;-86
2021/03/04 00:51:44;;;;;;;100.18;50.78;;;6.20;85.00;;;;;;5031038;28;20497;-86
2021/03/04 00:54:10;;;;;;;102.78;51.13;;;6.20;84.50;;;;;;5030949;28;20387;-85
2021/03/04 00:56:35;;;;;;;100.18;50.05;;;6.20;85.00;;;;;;5030689;28;20429;-85
2021/03/04 00:59:01;;;;;;;104.13;53.45;;;6.10;85.30;;;;;;5030923;28;20383;-86
2021/03/04 01:01:27;;;;;;;105.25;52.40;;;5.90;86.60;;;;;;5029628;28;20752;-86
2021/03/04 01:03:52;;;;;;;101.47;50.05;;;6.00;86.40;;;;;;5030706;28;20386;-86
2021/03/04 01:06:19;;;;;;;105.00;50.50;;;6.10;85.40;;;;;;5029674;28;20876;-85
2021/03/04 01:08:47;;;;;;;101.95;50.85;;;6.10;85.50;;;;;;5030032;28;20405;-85
2021/03/04 01:11:14;;;;;;;98.80;49.05;;;6.30;84.90;;;;;;5030834;28;20502;-86
2021/03/04 01:13:40;;;;;;;96.88;48.97;;;6.20;84.70;;;;;;5030530;28;20399;-85
2021/03/04 01:16:06;;;;;;;95.43;47.57;;;6.30;84.70;;;;;;5030487;28;20398;-85
2021/03/04 01:18:31;;;;;;;110.30;54.33;;;6.30;85.10;;;;;;5029046;28;20441;-86
2021/03/04 01:20:57;;;;;;;104.15;50.70;;;5.90;87.10;;;;;;5030376;28;20468;-85
2021/03/04 01:23:23;;;;;;;104.47;50.50;;;5.90;86.50;;;;;;5029414;28;20397;-85
2021/03/04 01:25:48;;;;;;;99.27;51.67;;;6.00;85.40;;;;;;5029223;28;20392;-85
2021/03/04 01:28:14;;;;;;;95.40;49.47;;;6.20;85.90;;;;;;5029114;28;20399;-85
2021/03/04 01:30:40;;;;;;;98.13;50.03;;;6.20;85.50;;;;;;5030332;28;20450;-85
2021/03/04 01:33:05;;;;;;;95.80;49.17;;;6.10;85.30;;;;;;5030637;28;20896;-85
2021/03/04 01:35:31;;;;;;;119.45;54.55;;;6.20;85.60;;;;;;5030211;28;20380;-85
2021/03/04 01:37:57;;;;;;;94.32;49.17;;;5.90;87.70;;;;;;5028673;28;20395;-85
2021/03/04 01:40:23;;;;;;;104.53;49.70;;;6.00;86.60;;;;;;5029242;28;20921;-85
2021/03/04 01:42:52;;;;;;;111.45;56.25;;;6.00;86.50;;;;;;5028987;28;20514;-85
2021/03/04 01:45:18;;;;;;;110.80;54.17;;;6.10;86.90;;;;;;5030489;28;20383;-85
2021/03/04 01:47:49;;;;;;;105.20;51.72;;;6.10;87.40;;;;;;5029860;28;20448;-86
2021/03/04 01:50:15;;;;;;;104.00;50.45;;;6.00;87.70;;;;;;5031172;28;20407;-86
2021/03/04 01:52:42;;;;;;;102.95;51.83;;;6.20;86.30;;;;;;5030371;28;20383;-85
2021/03/04 01:55:08;;;;;;;100.68;51.75;;;6.30;86.50;;;;;;5029492;28;20526;-85
2021/03/04 01:57:37;;;;;;;102.80;50.83;;;6.40;86.40;;;;;;5028954;28;20419;-86
2021/03/04 02:00:07;;;;;;;103.28;52.03;;;6.40;86.00;;;;;;5034745;28;20387;-86
2021/03/04 02:02:32;;;;;;;103.28;52.35;;;6.40;86.30;;;;;;5034476;28;20381;-85
2021/03/04 02:04:58;;;;;;;103.63;49.03;;;6.40;87.00;;;;;;5033560;28;20401;-85
2021/03/04 02:07:40;;;;;;;115.47;58.23;;;6.30;86.50;;;;;;5033846;28;20848;-86
2021/03/04 02:10:28;;;;;;;106.75;51.70;;;6.00;89.10;;;;;;5032331;28;20896;-86
2021/03/04 02:13:13;;;;;;;110.07;54.97;;;6.10;87.90;;;;;;5034145;28;20386;-86
2021/03/04 02:15:57;;;;;;;104.03;55.25;;;6.20;87.90;;;;;;5034098;28;20387;-86
2021/03/04 02:18:27;;;;;;;108.55;53.45;;;6.30;87.10;;;;;;5033827;28;20444;-86
2021/03/04 02:21:14;;;;;;;102.43;52.03;;;6.30;87.60;;;;;;5032338;28;20486;-86
2021/03/04 02:23:59;;;;;;;155.45;69.75;;;6.30;87.20;;;;;;5033481;28;20440;-86
2021/03/04 02:26:43;;;;;;;125.78;62.50;;;6.00;90.80;;;;;;5034102;28;20900;-85
2021/03/04 02:29:13;;;;;;;124.82;62.15;;;5.90;91.40;;;;;;5033702;28;20407;-85
2021/03/04 02:31:41;;;;;;;117.38;59.45;;;6.00;91.40;;;;;;5033771;28;20449;-85
2021/03/04 02:34:09;;;;;;;122.22;59.65;;;6.00;90.50;;;;;;5032057;28;20402;-86
2021/03/04 02:36:36;;;;;;;110.55;56.55;;;6.10;91.00;;;;;;5032204;28;20383;-85
2021/03/04 02:39:07;;;;;;;127.15;60.75;;;6.10;90.90;;;;;;5031889;28;20379;-85
2021/03/04 02:41:37;;;;;;;133.15;64.40;;;6.10;91.00;;;;;;5032334;28;20429;-86
2021/03/04 02:44:08;;;;;;;131.40;62.25;;;6.20;90.40;;;;;;5032231;28;20709;-86
2021/03/04 02:46:35;;;;;;;119.07;57.10;;;6.00;91.80;;;;;;5031740;28;20427;-85
2021/03/04 02:49:01;;;;;;;119.25;57.03;;;6.00;91.70;;;;;;5032051;28;20387;-86
2021/03/04 02:51:28;;;;;;;112.53;53.70;;;6.10;91.10;;;;;;5033093;28;20506;-86
2021/03/04 02:53:55;;;;;;;128.65;61.15;;;6.00;91.40;;;;;;5033401;28;20391;-86
2021/03/04 02:56:22;;;;;;;135.27;63.60;;;6.10;91.70;;;;;;5033113;28;20442;-86
2021/03/04 02:58:50;;;;;;;131.20;62.17;;;5.90;92.10;;;;;;5031591;28;20387;-86
2021/03/04 03:01:17;;;;;;;129.85;60.30;;;5.90;92.00;;;;;;5032952;28;20409;-86
2021/03/04 03:03:44;;;;;;;115.18;53.30;;;5.90;92.10;;;;;;5033293;28;20453;-86
2021/03/04 03:06:10;;;;;;;129.38;57.72;;;5.90;91.80;;;;;;5033148;28;20469;-87
2021/03/04 03:08:36;;;;;;;109.90;52.13;;;5.90;92.10;;;;;;5032585;28;20426;-86
2021/03/04 03:11:02;;;;;;;115.88;54.70;;;6.00;91.30;;;;;;5031955;28;20422;-85
2021/03/04 03:13:29;;;;;;;126.07;57.95;;;6.10;91.10;;;;;;5032369;28;20876;-86
2021/03/04 03:15:55;;;;;;;129.88;59.95;;;5.90;91.40;;;;;;5031732;28;20395;-85
2021/03/04 03:18:20;;;;;;;115.38;56.47;;;5.90;91.70;;;;;;5032262;28;20369;-86
2021/03/04 03:20:46;;;;;;;113.07;52.55;;;5.90;91.70;;;;;;5032961;28;20527;-85
2021/03/04 03:23:11;;;;;;;105.05;49.95;;;5.90;91.90;;;;;;5032665;28;20479;-86
2021/03/04 03:25:37;;;;;;;117.97;55.17;;;6.10;90.10;;;;;;5033006;28;20872;-85
2021/03/04 03:28:03;;;;;;;100.03;50.10;;;6.00;90.30;;;;;;5031982;28;20805;-85
2021/03/04 03:30:29;;;;;;;107.22;50.95;;;6.10;90.30;;;;;;5031504;28;20418;-85
2021/03/04 03:33:04;;;;;;;105.67;51.80;;;6.00;90.60;;;;;;5032537;28;20433;-85
2021/03/04 03:35:30;;;;;;;123.65;57.45;;;5.90;91.40;;;;;;5032412;28;20833;-84
2021/03/04 03:37:57;;;;;;;125.60;57.72;;;5.90;91.80;;;;;;5031965;28;20375;-85
2021/03/04 03:40:24;;;;;;;119.15;54.25;;;5.80;92.10;;;;;;5032371;28;20388;-85
2021/03/04 03:42:53;;;;;;;110.68;52.05;;;5.80;92.10;;;;;;5030965;28;20466;-84
2021/03/04 03:45:22;;;;;;;126.30;57.22;;;6.00;90.80;;;;;;5032079;28;20389;-85
2021/03/04 03:47:49;;;;;;;113.57;53.75;;;6.00;91.40;;;;;;5032086;28;20390;-85
2021/03/04 03:50:15;;;;;;;96.78;48.65;;;5.90;91.00;;;;;;5030553;28;20393;-85
2021/03/04 03:52:43;;;;;;;95.35;46.08;;;6.00;91.00;;;;;;5032419;28;20857;-85
2021/03/04 03:55:10;;;;;;;95.95;47.17;;;6.10;89.40;;;;;;5032090;28;20380;-84
2021/03/04 03:57:35;;;;;;;91.15;45.40;;;6.30;89.20;;;;;;5031358;28;20379;-85
2021/03/04 04:00:03;;;;;;;92.97;47.10;;;6.30;88.70;;;;;;5032109;28;20851;-85
2021/03/04 04:02:30;;;;;;;108.63;52.00;;;6.20;88.80;;;;;;5030534;28;20462;-85
2021/03/04 04:04:56;;;;;;;103.30;49.15;;;6.00;90.20;;;;;;5032234;28;20384;-84
2021/03/04 04:07:22;;;;;;;110.30;52.10;;;5.90;90.70;;;;;;5030237;28;20391;-84
2021/03/04 04:09:48;;;;;;;113.20;53.43;;;6.00;90.70;;;;;;5032157;28;20497;-84
2021/03/04 04:12:14;;;;;;;122.78;54.40;;;6.00;90.70;;;;;;5031938;28;20398;-84
2021/03/04 04:14:40;;;;;;;122.37;56.33;;;6.10;90.70;;;;;;5032495;28;20816;-84
2021/03/04 04:17:06;;;;;;;114.13;53.20;;;6.00;91.50;;;;;;5031336;28;20389;-85
2021/03/04 04:19:32;;;;;;;103.88;49.35;;;5.80;92.00;;;;;;5031660;28;20748;-84
2021/03/04 04:21:58;;;;;;;98.50;48.25;;;6.00;90.40;;;;;;5030406;28;20402;-84
2021/03/04 04:24:24;;;;;;;101.50;47.47;;;6.10;89.20;;;;;;5031393;28;20379;-84
2021/03/04 04:26:50;;;;;;;117.60;54.63;;;6.10;89.10;;;;;;5031115;28;20386;-84
2021/03/04 04:29:15;;;;;;;102.87;51.33;;;6.00;90.30;;;;;;5031453;28;20876;-84
2021/03/04 04:31:41;;;;;;;104.38;48.90;;;5.90;90.20;;;;;;5030377;28;20407;-84
2021/03/04 04:34:07;;;;;;;118.30;54.42;;;6.00;89.70;;;;;;5031292;28;20945;-84
2021/03/04 04:36:32;;;;;;;116.43;54.05;;;5.90;90.60;;;;;;5031022;28;20387;-84
2021/03/04 04:38:58;;;;;;;111.70;50.33;;;5.70;91.60;;;;;;5030483;28;20394;-84
2021/03/04 04:41:24;;;;;;;109.50;51.50;;;5.60;92.20;;;;;;5031326;28;20391;-85
2021/03/04 04:43:49;;;;;;;103.53;51.30;;;5.80;90.40;;;;;;5031221;28;20486;-84
2021/03/04 04:46:15;;;;;;;97.95;48.05;;;5.70;91.00;;;;;;5031445;28;20871;-85
2021/03/04 04:48:41;;;;;;;101.85;49.08;;;5.80;90.50;;;;;;5030771;28;20384;-84
2021/03/04 04:51:06;;;;;;;94.60;45.38;;;5.70;91.20;;;;;;5031837;28;20411;-85
2021/03/04 04:53:32;;;;;;;100.40;47.53;;;5.60;91.10;;;;;;5031102;28;20886;-85
2021/03/04 04:55:57;;;;;;;104.38;48.33;;;5.60;90.60;;;;;;5030939;28;20771;-85
2021/03/04 04:58:23;;;;;;;118.43;49.45;;;5.60;90.50;;;;;;5030783;28;20394;-85
2021/03/04 05:00:48;;;;;;;99.33;45.63;;;5.40;92.30;;;;;;5029439;28;20387;-85
2021/03/04 05:03:14;;;;;;;102.27;45.20;;;5.60;90.80;;;;;;5030993;28;20390;-85
2021/03/04 05:05:39;;;;;;;90.67;45.90;;;5.70;89.80;;;;;;5030532;28;20444;-85
2021/03/04 05:08:05;;;;;;;120.30;53.53;;;5.70;89.40;;;;;;5029360;28;20441;-85
2021/03/04 05:10:31;;;;;;;102.82;49.20;;;5.30;91.00;;;;;;5030768;28;20729;-84
2021/03/04 05:12:57;;;;;;;103.77;48.03;;;5.30;91.50;;;;;;5030598;28;20391;-84
2021/03/04 05:15:22;;;;;;;103.43;47.77;;;5.30;91.40;;;;;;5030659;28;20375;-84
2021/03/04 05:17:48;;;;;;;98.23;46.57;;;5.30;91.70;;;;;;5030547;28;20371;-85
2021/03/04 05:20:14;;;;;;;98.77;46.27;;;5.40;90.50;;;;;;5030322;28;20391;-84
2021/03/04 05:22:39;;;;;;;123.07;55.22;;;5.40;90.50;;;;;;5029413;28;20876;-84
2021/03/04 05:25:06;;;;;;;110.60;50.57;;;5.30;91.20;;;;;;5030390;28;20376;-85
2021/03/04 05:27:31;;;;;;;128.82;56.33;;;5.30;91.20;;;;;;5029682;28;20673;-82
2021/03/04 05:29:57;;;;;;;139.80;58.40;;;5.10;92.20;;;;;;5030562;28;20442;-85
2021/03/04 05:32:22;;;;;;;144.18;58.28;;;5.00;92.90;;;;;;5029583;28;20553;-85
2021/03/04 05:34:48;;;;;;;128.60;55.30;;;5.00;93.30;;;;;;5028129;28;20394;-85
2021/03/04 05:37:14;;;;;;;130.97;54.17;;;5.00;92.90;;;;;;5029719;28;20398;-85
2021/03/04 05:39:40;;;;;;;115.80;51.88;;;5.00;93.30;;;;;;5030527;28;20383;-85
2021/03/04 05:42:07;;;;;;;134.85;55.63;;;5.20;92.60;;;;;;5030192;28;20380;-84
2021/03/04 05:44:32;;;;;;;152.47;60.20;;;5.10;92.90;;;;;;5030188;28;20394;-85
2021/03/04 05:46:58;;;;;;;153.63;59.65;;;5.10;93.10;;;;;;5029672;28;20697;-85
2021/03/04 05:49:28;;;;;;;161.35;63.38;;;5.10;93.30;;;;;;5028737;28;20391;-85
2021/03/04 05:52:00;;;;;;;139.63;56.00;;;5.00;93.80;;;;;;5027490;28;20446;-84
2021/03/04 05:54:34;;;;;;;157.23;60.53;;;5.20;93.20;;;;;;5028803;28;20880;-85
2021/03/04 05:57:01;;;;;;;140.55;57.35;;;5.10;93.70;;;;;;5028625;28;20453;-84
2021/03/04 05:59:27;;;;;;;158.30;60.45;;;5.10;93.40;;;;;;5028695;28;20419;-84
2021/03/04 06:01:53;;;;;;;178.03;65.80;;;5.10;93.70;;;;;;5028856;28;20422;-85
2021/03/04 06:04:18;;;;;;;176.85;63.65;;;5.00;94.40;;;;;;5030082;28;20744;-85
2021/03/04 06:06:45;;;;;;;173.43;66.50;;;5.10;94.20;;;;;;5029806;28;20475;-84
2021/03/04 06:09:10;;;;;;;167.23;64.15;;;5.00;94.50;;;;;;5029906;28;20387;-85
2021/03/04 06:11:37;;;;;;;161.77;62.27;;;5.10;94.60;;;;;;5030087;28;20453;-84
2021/03/04 06:14:04;;;;;;;165.90;66.00;;;5.20;94.00;;;;;;5028670;28;20399;-84
2021/03/04 06:16:29;;;;;;;175.10;65.37;;;5.20;93.90;;;;;;5029675;28;20396;-82
2021/03/04 06:18:55;;;;;;;170.68;63.38;;;5.10;94.00;;;;;;5029659;28;20785;-85
2021/03/04 06:21:28;;;;;;;173.02;62.95;;;5.00;93.90;;;;;;5029763;28;20383;-84
2021/03/04 06:23:56;;;;;;;164.97;63.17;;;5.00;94.00;;;;;;5029044;28;20402;-84
2021/03/04 06:26:37;;;;;;;160.15;63.10;;;4.90;93.90;;;;;;5030024;28;20379;-84
2021/03/04 06:29:23;;;;;;;180.68;65.53;;;4.80;94.20;;;;;;5030496;28;20486;-84
2021/03/04 06:32:06;;;;;;;203.93;68.18;;;4.70;94.40;;;;;;5030046;28;20395;-85
2021/03/04 06:34:32;;;;;;;156.27;62.50;;;4.60;94.70;;;;;;5029202;28;20391;-84
2021/03/04 06:37:06;;;;;;;176.70;64.37;;;4.70;94.70;;;;;;5029239;28;20988;-84
2021/03/04 06:39:43;;;;;;;182.05;63.95;;;4.60;94.20;;;;;;5028751;28;20796;-84
2021/03/04 06:42:10;;;;;;;174.75;62.60;;;4.70;94.30;;;;;;5030165;28;20395;-84
2021/03/04 06:44:55;;;;;;;142.75;54.25;;;4.70;94.10;;;;;;5031735;28;20426;-84
2021/03/04 06:47:26;;;;;;;143.93;55.65;;;5.00;93.30;;;;;;5033423;28;20379;-84
2021/03/04 06:49:53;;;;;;;122.75;51.88;;;5.00;92.80;;;;;;5032267;28;20395;-84
2021/03/04 06:52:25;;;;;;;147.18;56.67;;;5.20;92.20;;;;;;5033755;28;20398;-84
2021/03/04 06:54:53;;;;;;;163.10;60.45;;;5.00;92.80;;;;;;5033413;28;20434;-84
2021/03/04 06:57:20;;;;;;;144.45;56.40;;;5.00;93.50;;;;;;5030642;28;20482;-83
2021/03/04 06:59:46;;;;;;;147.25;57.45;;;5.10;92.80;;;;;;5032712;28;20387;-84
2021/03/04 07:02:29;;;;;;;160.10;59.20;;;5.10;92.70;;;;;;5031171;28;20426;-84
2021/03/04 07:05:03;;;;;;;143.33;57.20;;;5.10;93.00;;;;;;5032322;28;20386;-84
2021/03/04 07:07:29;;;;;;;157.40;58.58;;;5.10;93.00;;;;;;5030432;28;20478;-84
2021/03/04 07:09:57;;;;;;;147.45;58.42;;;4.90;92.80;;;;;;5032239;28;20384;-83
2021/03/04 07:12:24;;;;;;;151.85;55.88;;;4.90;92.90;;;;;;5032380;28;20473;-83
2021/03/04 07:14:52;;;;;;;148.45;56.72;;;4.90;93.40;;;;;;5032825;28;20395;-83
2021/03/04 07:17:21;;;;;;;153.95;56.58;;;4.80;93.40;;;;;;5031486;28;20440;-82
2021/03/04 07:19:49;;;;;;;169.70;62.55;;;4.80;93.60;;;;;;5031976;28;20395;-82
2021/03/04 07:22:19;;;;;;;161.37;59.80;;;4.70;94.10;;;;;;5032568;28;20444;-82
2021/03/04 07:24:46;;;;;;;177.10;61.92;;;4.80;94.10;;;;;;5032008;28;20800;-82
2021/03/04 07:27:16;;;;;;;176.23;64.20;;;4.60;94.10;;;;;;5031004;28;20718;-82
2021/03/04 07:29:43;;;;;;;146.50;57.40;;;4.60;94.20;;;;;;5032133;28;20403;-82
2021/03/04 07:32:12;;;;;;;152.32;54.33;;;4.90;94.00;;;;;;5032612;28;20383;-83
2021/03/04 07:34:40;;;;;;;147.25;55.28;;;4.70;93.80;;;;;;5032460;28;20741;-82
2021/03/04 07:37:07;;;;;;;147.52;54.72;;;4.60;94.70;;;;;;5030949;28;20387;-82
2021/03/04 07:39:35;;;;;;;136.27;52.92;;;4.90;94.30;;;;;;5031127;28;20395;-82
2021/03/04 07:42:01;;;;;;;139.93;52.88;;;4.80;93.50;;;;;;5031112;28;20784;-82
2021/03/04 07:44:29;;;;;;;141.02;54.45;;;4.90;94.00;;;;;;5032401;28;20379;-82
2021/03/04 07:46:57;;;;;;;143.18;53.28;;;4.70;94.50;;;;;;5032116;28;20391;-81
2021/03/04 07:49:41;;;;;;;168.13;57.55;;;4.70;94.40;;;;;;5030909;28;20748;-81
2021/03/04 07:52:21;;;;;;;152.50;57.53;;;4.70;94.80;;;;;;5032052;28;20395;-80
2021/03/04 07:54:49;;;;;;;171.63;57.88;;;4.70;94.50;;;;;;5032418;28;20380;-80
2021/03/04 07:57:17;;;;;;;155.48;57.78;;;4.70;94.50;;;;;;5030881;28;20372;-80
2021/03/04 07:59:48;;;;;;;157.65;55.78;;;4.80;94.20;;;;;;5032279;28;20855;-80
2021/03/04 08:02:25;;;;;;;188.40;60.97;;;4.60;94.50;;;;;;5032054;28;20442;-80
2021/03/04 08:04:51;;;;;;;155.27;53.97;;;4.70;94.70;;;;;;5032131;28;20415;-80
2021/03/04 08:07:26;;;;;;;147.30;54.08;;;4.80;94.60;;;;;;5030919;28;20469;-80
2021/03/04 08:10:03;;;;;;;125.00;48.40;;;4.90;94.40;;;;;;5029497;28;20480;-80
2021/03/04 08:12:29;;;;;;;154.00;55.92;;;4.90;94.20;;;;;;5029396;28;20529;-80
2021/03/04 08:14:56;;;;;;;168.63;58.70;;;4.80;94.40;;;;;;5031079;28;20855;-81
2021/03/04 08:17:23;;;;;;;155.32;56.78;;;4.70;94.60;;;;;;5030145;28;20391;-80
2021/03/04 08:19:48;;;;;;;132.07;49.43;;;4.70;94.70;;;;;;5031146;28;20956;-80
2021/03/04 08:22:19;;;;;;;129.10;50.28;;;5.00;94.20;;;;;;5032066;28;20475;-80
2021/03/04 08:24:46;;;;;;;139.93;51.72;;;5.00;94.00;;;;;;5030085;28;20390;-80
2021/03/04 08:27:12;;;;;;;166.38;56.88;;;4.90;93.90;;;;;;5031284;28;20393;-80
2021/03/04 08:29:46;;;;;;;176.38;57.28;;;4.70;94.60;;;;;;5031467;28;20486;-80
2021/03/04 08:32:13;;;;;;;168.52;58.72;;;4.70;95.00;;;;;;5031353;28;20458;-81
2021/03/04 08:34:39;;;;;;;204.30;63.93;;;4.80;95.00;;;;;;5029894;28;20581;-80
2021/03/04 08:37:06;;;;;;;205.93;67.32;;;4.70;94.70;;;;;;5029477;28;20399;-80
2021/03/04 08:39:34;;;;;;;205.77;61.83;;;4.70;95.20;;;;;;5030207;28;20438;-80
2021/03/04 08:42:05;;;;;;;174.07;55.83;;;4.70;95.40;;;;;;5031134;28;20553;-80
2021/03/04 08:44:31;;;;;;;189.88;59.35;;;4.60;95.40;;;;;;5030010;28;20395;-80
2021/03/04 08:46:57;;;;;;;185.17;57.77;;;4.60;95.50;;;;;;5030625;28;20375;-81
2021/03/04 08:49:22;;;;;;;152.20;52.40;;;4.60;95.50;;;;;;5031470;28;20390;-80
2021/03/04 08:51:48;;;;;;;143.93;50.20;;;4.60;95.30;;;;;;5031091;28;20398;-81
2021/03/04 08:54:21;;;;;;;156.45;54.22;;;4.50;95.20;;;;;;5030083;28;20414;-81
2021/03/04 08:57:05;;;;;;;147.48;51.17;;;4.40;95.50;;;;;;5030707;28;20387;-81
2021/03/04 08:59:31;;;;;;;145.48;51.80;;;4.40;95.70;;;;;;5030898;28;20387;-81
2021/03/04 09:01:58;;;;;;;154.93;51.78;;;4.40;95.60;;;;;;5029652;28;20465;-80
2021/03/04 09:04:25;;;;;;;159.20;52.27;;;4.40;96.00;;;;;;5030906;28;20783;-81
2021/03/04 09:06:52;;;;;;;159.27;47.97;;;4.40;95.80;;;;;;5030110;28;20714;-81
2021/03/04 09:09:28;;;;;;;125.22;41.92;;;4.40;95.80;;;;;;5030115;28;20376;-81
2021/03/04 09:11:56;;;;;;;139.23;42.80;;;4.40;95.90;;;;;;5030531;28;20410;-81
2021/03/04 09:14:26;;;;;;;119.80;40.67;;;4.30;96.00;;;;;;5030793;28;20383;-81
2021/03/04 09:16:52;;;;;;;97.00;35.10;;;4.40;96.10;;;;;;5029636;28;20391;-81
2021/03/04 09:19:31;;;;;;;91.70;35.15;;;4.40;95.70;;;;;;5030691;28;20390;-81
2021/03/04 09:22:04;;;;;;;81.45;31.60;;;4.30;95.70;;;;;;5030344;28;20415;-81
2021/03/04 09:24:36;;;;;;;77.32;30.77;;;4.40;95.60;;;;;;5029417;28;20395;-80
2021/03/04 09:27:03;;;;;;;70.07;27.00;;;4.40;95.60;;;;;;5029981;28;20379;-81
2021/03/04 09:29:31;;;;;;;79.35;29.08;;;4.40;95.40;;;;;;5029100;28;20407;-81
2021/03/04 09:31:57;;;;;;;57.67;24.83;;;4.40;95.50;;;;;;5029041;28;20442;-81
2021/03/04 09:34:35;;;;;;;57.88;23.55;;;4.60;95.10;;;;;;5030697;28;20900;-81
2021/03/04 09:37:10;;;;;;;46.70;22.55;;;4.90;94.10;;;;;;5029976;28;20380;-81
2021/03/04 09:39:37;;;;;;;50.43;21.77;;;5.00;93.40;;;;;;5028825;28;20409;-81
2021/03/04 09:42:03;;;;;;;54.17;22.70;;;4.80;93.70;;;;;;5029208;28;20963;-80
2021/03/04 09:44:29;;;;;;;50.97;22.15;;;4.60;94.60;;;;;;5028974;28;20715;-81
2021/03/04 09:46:55;;;;;;;41.50;19.15;;;4.70;94.80;;;;;;5029900;28;20848;-80
2021/03/04 09:49:21;;;;;;;45.70;19.92;;;4.80;94.20;;;;;;5030173;28;20848;-81
2021/03/04 09:51:46;;;;;;;36.03;17.90;;;4.70;95.00;;;;;;5030489;28;20441;-81
2021/03/04 09:54:24;;;;;;;43.57;20.60;;;5.00;94.10;;;;;;5030517;28;20376;-80
2021/03/04 09:57:04;;;;;;;40.53;19.83;;;4.90;93.90;;;;;;5029885;28;20469;-81
2021/03/04 09:59:29;;;;;;;45.40;19.58;;;5.00;94.60;;;;;;5029831;28;20388;-81
2021/03/04 10:01:55;;;;;;;49.83;19.83;;;4.90;94.40;;;;;;5029950;28;20418;-81
2021/03/04 10:04:26;;;;;;;43.83;19.73;;;4.70;94.90;;;;;;5030455;28;20386;-81
2021/03/04 10:06:52;;;;;;;35.97;16.38;;;4.60;95.10;;;;;;5027835;28;20395;-81
2021/03/04 10:09:25;;;;;;;39.40;16.17;;;4.70;95.20;;;;;;5029915;28;20383;-80
2021/03/04 10:11:51;;;;;;;29.75;14.68;;;4.60;95.60;;;;;;5028725;28;20395;-81
2021/03/04 10:14:16;;;;;;;32.70;14.88;;;4.70;95.70;;;;;;5030636;28;20383;-81
2021/03/04 10:16:42;;;;;;;29.33;11.10;;;4.60;95.70;;;;;;5028220;28;20390;-81
2021/03/04 10:19:09;;;;;;;23.85;11.35;;;4.50;95.30;;;;;;5031757;28;20736;-80
2021/03/04 10:21:35;;;;;;;26.98;11.23;;;4.40;95.30;;;;;;5033786;28;20410;-81
2021/03/04 10:24:01;;;;;;;21.53;10.87;;;4.60;95.30;;;;;;5034110;28;20395;-81
2021/03/04 10:26:27;;;;;;;17.25;8.95;;;4.60;95.20;;;;;;5033684;28;20387;-81
2021/03/04 10:28:53;;;;;;;16.83;8.55;;;4.40;95.00;;;;;;5033615;28;20768;-82
2021/03/04 10:31:18;;;;;;;18.83;9.70;;;4.50;95.10;;;;;;5033814;28;20394;-81
2021/03/04 10:33:44;;;;;;;18.20;8.93;;;4.60;95.30;;;;;;5032107;28;20422;-81
2021/03/04 10:36:09;;;;;;;14.03;7.33;;;4.60;95.50;;;;;;5034030;28;20379;-81
2021/03/04 10:38:35;;;;;;;12.43;6.87;;;4.50;95.30;;;;;;5033251;28;20379;-81
2021/03/04 10:41:01;;;;;;;12.10;6.67;;;4.50;94.70;;;;;;5032204;28;20770;-81
2021/03/04 10:43:27;;;;;;;15.65;7.82;;;4.40;94.80;;;;;;5031744;28;20413;-81
2021/03/04 10:45:53;;;;;;;14.32;7.13;;;4.40;95.30;;;;;;5033544;28;20379;-81
2021/03/04 10:48:18;;;;;;;14.40;7.07;;;4.50;95.00;;;;;;5032697;28;20466;-81
2021/03/04 10:50:44;;;;;;;12.35;6.47;;;4.30;94.90;;;;;;5033491;28;20749;-81
2021/03/04 10:53:10;;;;;;;14.25;7.35;;;4.40;95.50;;;;;;5033639;28;20437;-81
2021/03/04 10:55:36;;;;;;;14.27;6.87;;;4.60;94.80;;;;;;5033600;28;20383;-81
2021/03/04 10:58:01;;;;;;;12.30;6.85;;;4.40;94.60;;;;;;5031580;28;20480;-81
2021/03/04 11:00:27;;;;;;;10.23;6.17;;;4.50;94.70;;;;;;5033159;28;20676;-81
2021/03/04 11:02:52;;;;;;;12.80;7.17;;;4.70;94.00;;;;;;5033551;28;20445;-80
2021/03/04 11:05:18;;;;;;;10.70;6.13;;;4.60;93.90;;;;;;5031152;28;20785;-81
2021/03/04 11:07:45;;;;;;;15.50;7.43;;;4.60;94.30;;;;;;5031952;28;20379;-81
2021/03/04 11:10:11;;;;;;;11.68;5.85;;;4.50;94.80;;;;;;5032341;28;20848;-80
2021/03/04 11:12:37;;;;;;;11.80;5.80;;;4.50;94.50;;;;;;5030965;28;20402;-81
2021/03/04 11:15:04;;;;;;;10.40;5.03;;;4.40;94.60;;;;;;5032641;28;20394;-80
2021/03/04 11:17:30;;;;;;;8.27;4.70;;;4.50;94.50;;;;;;5030799;28;20739;-81
2021/03/04 11:19:55;;;;;;;11.77;5.15;;;4.60;94.20;;;;;;5032339;28;20371;-81
2021/03/04 11:22:21;;;;;;;7.60;4.53;;;4.60;93.90;;;;;;5032136;28;20465;-81
2021/03/04 11:24:47;;;;;;;8.93;5.20;;;4.90;93.70;;;;;;5032093;28;20918;-82
2021/03/04 11:27:16;;;;;;;6.70;4.28;;;4.90;94.20;;;;;;5030871;28;20894;-80
2021/03/04 11:29:42;;;;;;;8.30;4.43;;;4.80;93.70;;;;;;5031324;28;20884;-81
2021/03/04 11:32:08;;;;;;;9.70;4.60;;;4.60;93.20;;;;;;5031203;28;20391;-81
2021/03/04 11:34:34;;;;;;;8.17;4.97;;;4.50;94.50;;;;;;5031890;28;20794;-81
2021/03/04 11:36:59;;;;;;;8.35;4.85;;;4.50;94.60;;;;;;5029779;28;20461;-81
2021/03/04 11:39:25;;;;;;;11.50;5.70;;;4.50;94.30;;;;;;5031537;28;20392;-81
2021/03/04 11:41:50;;;;;;;9.77;5.10;;;4.60;94.30;;;;;;5030014;28;20495;-80
2021/03/04 11:44:16;;;;;;;9.20;5.33;;;4.60;94.40;;;;;;5032526;28;20856;-81
2021/03/04 11:46:41;;;;;;;8.40;4.87;;;4.60;94.50;;;;;;5031909;28;20782;-81
2021/03/04 11:49:07;;;;;;;9.90;4.73;;;4.60;94.30;;;;;;5032495;28;20383;-81
2021/03/04 11:51:33;;;;;;;11.97;5.30;;;4.70;93.90;;;;;;5030798;28;20406;-80
2021/03/04 11:53:59;;;;;;;9.80;5.38;;;4.60;93.60;;;;;;5032331;28;20387;-81
2021/03/04 11:56:25;;;;;;;11.00;5.22;;;4.70;93.80;;;;;;5031682;28;20532;-81
2021/03/04 11:58:50;;;;;;;12.25;5.90;;;4.50;93.50;;;;;;5030443;28;20387;-80
2021/03/04 12:01:17;;;;;;;10.10;5.65;;;4.70;93.40;;;;;;5030822;28;20403;-80
2021/03/04 12:03:42;;;;;;;15.25;5.75;;;4.80;93.20;;;;;;5030608;28;20409;-81
2021/03/04 12:06:08;;;;;;;10.93;5.57;;;4.40;94.10;;;;;;5030706;28;20391;-80
2021/03/04 12:08:33;;;;;;;11.07;5.75;;;4.60;94.20;;;;;;5031336;28;20468;-80
2021/03/04 12:10:59;;;;;;;13.95;6.65;;;4.50;93.80;;;;;;5032005;28;20786;-81
2021/03/04 12:13:30;;;;;;;17.92;7.32;;;4.60;94.70;;;;;;5031637;28;20466;-81
2021/03/04 12:15:57;;;;;;;20.48;8.07;;;4.70;94.30;;;;;;5032033;28;20486;-80
2021/03/04 12:18:23;;;;;;;15.43;7.40;;;4.80;94.40;;;;;;5031071;28;20380;-81
2021/03/04 12:20:50;;;;;;;15.03;7.80;;;4.70;94.10;;;;;;5031813;28;20421;-81
2021/03/04 12:23:16;;;;;;;18.83;8.23;;;4.80;93.50;;;;;;5031359;28;20384;-81
2021/03/04 12:25:41;;;;;;;23.47;8.33;;;4.60;94.10;;;;;;5031880;28;20475;-81
2021/03/04 12:28:07;;;;;;;14.27;7.80;;;4.80;94.40;;;;;;5029300;28;20399;-81
2021/03/04 12:30:33;;;;;;;18.07;8.07;;;4.70;93.50;;;;;;5031029;28;20902;-81
2021/03/04 12:32:58;;;;;;;21.90;9.23;;;4.50;93.50;;;;;;5031712;28;20384;-80
2021/03/04 12:35:24;;;;;;;17.97;8.97;;;4.50;94.50;;;;;;5031338;28;20375;-81